Time;durP1;ratioP1;P1;durP2;ratioP2;P2;SDS_P1;SDS_P2;PMS_P1;PMS_P2;Temp;Humidity;BMP_temperature;BMP_pressure;BME280_temperature;BME280_humidity;BME280_pressure;Samples;Min_cycle;Max_cycle;Signal;HPM_P1;HPM_P2
2022/12/02 00:01:18;;;;;;;89.20;40.65;;;;;;;6.65;83.97;102649.53;5068922;28;20024;-47
2022/12/02 00:03:45;;;;;;;89.50;41.83;;;;;;;6.56;84.14;102648.88;5060744;28;20418;-49
2022/12/02 00:06:30;;;;;;;91.45;40.75;;;;;;;6.56;84.76;102649.75;5067632;28;20031;-49
2022/12/02 00:09:02;;;;;;;90.10;41.38;;;;;;;6.50;84.81;102645.88;5067444;28;20021;-47
2022/12/02 00:11:29;;;;;;;94.40;42.72;;;;;;;6.45;85.22;102640.41;5067154;28;20025;-50
2022/12/02 00:14:01;;;;;;;91.22;41.03;;;;;;;6.47;85.08;102636.31;5065591;28;20086;-49
2022/12/02 00:16:27;;;;;;;90.03;40.88;;;;;;;6.55;85.30;102640.31;5065902;28;20031;-49
2022/12/02 00:18:54;;;;;;;91.88;41.70;;;;;;;6.56;85.19;102644.66;5067467;28;20032;-47
2022/12/02 00:21:20;;;;;;;89.38;40.40;;;;;;;6.59;84.96;102646.53;5067890;28;20028;-48
2022/12/02 00:23:46;;;;;;;92.97;42.28;;;;;;;6.55;84.65;102641.97;5063605;28;20397;-48
2022/12/02 00:26:11;;;;;;;93.78;43.17;;;;;;;6.47;84.46;102640.53;5059743;28;20052;-50
2022/12/02 00:28:37;;;;;;;91.13;40.55;;;;;;;6.41;84.58;102629.06;5057529;28;20369;-48
2022/12/02 00:31:03;;;;;;;87.70;41.50;;;;;;;6.41;84.56;102626.53;5069901;28;20101;-49
2022/12/02 00:33:28;;;;;;;91.43;41.55;;;;;;;6.38;84.45;102617.75;5067995;28;20029;-47
2022/12/02 00:35:53;;;;;;;83.65;40.63;;;;;;;6.34;84.04;102631.09;5067525;28;20073;-50
2022/12/02 00:38:19;;;;;;;86.10;40.80;;;;;;;6.38;84.17;102623.75;5067905;28;20469;-49
2022/12/02 00:40:44;;;;;;;84.70;39.83;;;;;;;6.42;83.69;102619.75;5068968;28;20027;-47
2022/12/02 00:48:38;;;;;;;88.28;41.75;;;;;;;6.30;82.33;102619.72;5067623;28;20060;-48
2022/12/02 00:51:04;;;;;;;86.97;40.88;;;;;;;6.14;83.09;102622.84;5065559;28;20064;-45
2022/12/02 00:53:30;;;;;;;93.88;41.42;;;;;;;6.16;83.14;102613.63;5064613;28;20042;-48
2022/12/02 00:55:55;;;;;;;90.82;40.80;;;;;;;6.14;83.01;102616.84;5063127;28;20474;-47
2022/12/02 00:58:21;;;;;;;90.30;40.75;;;;;;;6.10;83.08;102618.28;5065021;28;20036;-48
2022/12/02 01:00:46;;;;;;;89.47;40.80;;;;;;;6.13;83.29;102615.06;5073766;28;20410;-47
2022/12/02 01:03:12;;;;;;;88.22;39.10;;;;;;;6.16;83.21;102612.72;5064752;28;20033;-46
2022/12/02 01:05:37;;;;;;;88.80;39.65;;;;;;;6.22;82.91;102617.41;5069141;28;20539;-47
2022/12/02 01:08:03;;;;;;;85.63;40.17;;;;;;;6.23;83.10;102614.06;5064418;28;20025;-48
2022/12/02 01:10:28;;;;;;;90.57;40.58;;;;;;;6.21;82.93;102618.19;5072527;28;20029;-47
2022/12/02 01:12:54;;;;;;;83.60;39.45;;;;;;;6.19;83.05;102612.97;5069756;28;20362;-50
2022/12/02 01:15:19;;;;;;;86.60;39.70;;;;;;;6.20;82.88;102606.19;5070468;28;20515;-47
2022/12/02 01:17:44;;;;;;;89.75;40.33;;;;;;;6.11;83.19;102609.84;5071493;28;20469;-48
2022/12/02 01:20:10;;;;;;;92.63;38.80;;;;;;;6.07;83.49;102615.50;5072651;28;20573;-48
2022/12/02 01:22:36;;;;;;;87.82;39.33;;;;;;;6.00;83.90;102607.25;5072740;28;20112;-46
2022/12/02 01:25:01;;;;;;;86.70;37.85;;;;;;;6.04;83.16;102612.72;5072968;28;20167;-49
2022/12/02 01:27:26;;;;;;;78.72;37.80;;;;;;;6.08;82.27;102617.28;5070599;28;20075;-49
2022/12/02 01:29:52;;;;;;;76.82;36.25;;;;;;;6.10;82.25;102610.63;5072612;28;20044;-46
2022/12/02 01:32:18;;;;;;;78.05;36.33;;;;;;;6.18;82.23;102618.84;5070982;28;20031;-48
2022/12/02 01:34:44;;;;;;;79.60;37.03;;;;;;;6.10;81.84;102618.28;5071312;28;20035;-47
2022/12/02 01:37:09;;;;;;;83.78;37.70;;;;;;;6.07;82.21;102620.63;5068761;28;20602;-44
2022/12/02 01:39:35;;;;;;;86.05;36.85;;;;;;;6.01;82.21;102620.16;5070333;28;20424;-47
2022/12/02 01:42:00;;;;;;;86.80;35.53;;;;;;;5.96;82.05;102613.81;5067022;28;20119;-50
2022/12/02 01:44:26;;;;;;;79.03;35.67;;;;;;;5.85;82.36;102622.31;5071365;28;20032;-49
2022/12/02 01:46:51;;;;;;;81.55;36.47;;;;;;;5.76;82.58;102619.03;5070040;28;20028;-48
2022/12/02 01:49:17;;;;;;;82.88;36.97;;;;;;;5.80;83.16;102618.50;5065770;28;20029;-46
2022/12/02 01:51:43;;;;;;;80.15;36.47;;;;;;;5.80;82.96;102615.97;5064355;28;20036;-45
2022/12/02 01:54:08;;;;;;;85.70;37.83;;;;;;;5.78;83.10;102615.84;5064164;28;20021;-46
2022/12/02 01:56:34;;;;;;;86.35;37.33;;;;;;;5.72;82.89;102610.28;5071151;28;20025;-48
2022/12/02 01:58:59;;;;;;;86.85;38.47;;;;;;;5.64;83.10;102612.25;5071046;28;20096;-48
2022/12/02 02:01:30;;;;;;;82.38;36.88;;;;;;;5.72;83.00;102615.38;5071540;28;20106;-47
2022/12/02 02:03:56;;;;;;;86.68;38.28;;;;;;;5.66;82.79;102612.38;5070647;28;20056;-48
2022/12/02 02:06:25;;;;;;;84.93;36.70;;;;;;;5.74;82.93;102613.81;5071898;28;20086;-53
2022/12/02 02:08:51;;;;;;;81.03;36.63;;;;;;;5.70;82.36;102609.25;5067847;28;20047;-52
2022/12/02 02:11:16;;;;;;;79.05;36.10;;;;;;;5.79;82.58;102612.53;5069824;28;20028;-47
2022/12/02 02:13:42;;;;;;;81.68;36.92;;;;;;;5.87;82.46;102605.44;5069852;28;20025;-48
2022/12/02 02:16:07;;;;;;;81.15;36.38;;;;;;;5.89;81.87;102609.00;5067132;28;20063;-48
2022/12/02 02:18:33;;;;;;;77.95;36.22;;;;;;;5.81;80.92;102612.63;5065514;28;20496;-48
2022/12/02 02:20:59;;;;;;;76.93;36.50;;;;;;;5.68;81.13;102608.25;5065745;28;20493;-47
2022/12/02 02:23:27;;;;;;;77.22;37.55;;;;;;;5.57;81.84;102609.09;5066398;28;20072;-46
2022/12/02 02:25:57;;;;;;;78.32;36.05;;;;;;;5.58;81.72;102611.81;5066671;28;20133;-47
2022/12/02 02:28:23;;;;;;;74.10;35.92;;;;;;;5.55;81.32;102615.78;5063066;28;20477;-49
2022/12/02 02:30:52;;;;;;;72.03;34.53;;;;;;;5.46;81.01;102600.66;5066131;28;20039;-46
2022/12/02 02:33:18;;;;;;;68.87;34.40;;;;;;;5.52;80.90;102608.78;5064297;28;20029;-48
2022/12/02 02:35:45;;;;;;;63.03;32.20;;;;;;;5.59;80.65;102599.94;5067507;28;20278;-46
2022/12/02 02:38:14;;;;;;;69.35;33.47;;;;;;;5.60;80.11;102594.03;5064819;28;20033;-47
2022/12/02 02:40:41;;;;;;;;;;;;;;;5.75;79.79;102591.75;5069465;28;21531;-47
2022/12/02 02:43:07;;;;;;;65.35;31.52;;;;;;;5.62;79.23;102592.50;5068309;28;19912;-46
2022/12/02 02:45:35;;;;;;;61.30;31.00;;;;;;;5.65;78.35;102593.63;5068170;28;20095;-45
2022/12/02 02:48:05;;;;;;;62.83;30.65;;;;;;;5.60;76.84;102599.16;5068919;28;20077;-47
2022/12/02 02:50:32;;;;;;;57.92;29.75;;;;;;;5.58;77.03;102595.56;5068582;28;20040;-47
2022/12/02 02:52:58;;;;;;;59.08;29.92;;;;;;;5.54;77.42;102597.03;5069476;28;20542;-48
2022/12/02 02:55:25;;;;;;;59.80;30.75;;;;;;;5.50;77.35;102596.66;5067569;28;20111;-49
2022/12/02 02:57:51;;;;;;;61.08;30.27;;;;;;;5.59;77.98;102589.72;5066021;28;20021;-50
2022/12/02 03:00:21;;;;;;;58.85;29.02;;;;;;;5.64;77.68;102578.16;5069656;28;20032;-50
2022/12/02 03:02:49;;;;;;;59.10;29.92;;;;;;;5.63;77.22;102584.06;5069815;28;20024;-46
2022/12/02 03:05:15;;;;;;;64.18;30.33;;;;;;;5.68;77.35;102572.53;5068183;28;20029;-48
2022/12/02 03:07:41;;;;;;;63.75;31.48;;;;;;;5.53;76.32;102573.94;5063945;28;20598;-47
2022/12/02 03:10:08;;;;;;;59.75;30.05;;;;;;;5.44;76.53;102568.13;5070123;28;20043;-48
2022/12/02 03:12:34;;;;;;;65.93;32.58;;;;;;;5.44;76.92;102566.47;5061578;28;20047;-47
2022/12/02 03:15:00;;;;;;;60.90;30.88;;;;;;;5.45;77.14;102569.91;5065033;28;20393;-48
2022/12/02 03:17:26;;;;;;;63.55;30.95;;;;;;;5.39;76.89;102566.09;5059454;28;20086;-48
2022/12/02 03:19:51;;;;;;;64.63;32.25;;;;;;;5.32;76.71;102576.63;5061328;28;20548;-47
2022/12/02 03:22:17;;;;;;;66.30;31.73;;;;;;;5.28;77.65;102576.31;5062854;28;20041;-48
2022/12/02 03:24:42;;;;;;;60.97;30.88;;;;;;;5.25;77.63;102576.03;5067449;28;20021;-48
2022/12/02 03:27:09;;;;;;;66.47;31.45;;;;;;;5.15;77.96;102566.78;5056683;28;20129;-46
2022/12/02 03:29:35;;;;;;;64.07;31.75;;;;;;;5.13;78.49;102573.44;5067594;28;20044;-47
2022/12/02 03:32:01;;;;;;;61.85;32.42;;;;;;;5.10;78.49;102575.78;5069151;28;20037;-48
2022/12/02 03:34:28;;;;;;;68.72;33.05;;;;;;;5.06;78.51;102571.19;5065633;28;20474;-47
2022/12/02 03:36:54;;;;;;;66.20;32.85;;;;;;;5.15;79.22;102560.81;5065556;28;20043;-47
2022/12/02 03:39:19;;;;;;;60.08;31.75;;;;;;;5.21;78.68;102551.97;5062285;28;20033;-48
2022/12/02 03:41:46;;;;;;;64.30;31.20;;;;;;;5.13;78.42;102547.94;5068450;28;20028;-47
2022/12/02 03:44:12;;;;;;;63.78;31.13;;;;;;;5.27;78.85;102546.44;5065503;28;20123;-57
2022/12/02 03:46:38;;;;;;;62.53;31.58;;;;;;;5.27;78.56;102549.88;5066741;28;20032;-48
2022/12/02 03:49:04;;;;;;;65.10;31.48;;;;;;;5.17;78.44;102543.97;5064152;28;20035;-46
2022/12/02 03:51:30;;;;;;;64.95;30.63;;;;;;;5.20;78.83;102550.19;5064342;28;20126;-48
2022/12/02 03:53:56;;;;;;;62.55;29.92;;;;;;;5.20;78.79;102544.19;5066800;28;20115;-43
2022/12/02 03:56:21;;;;;;;60.58;28.45;;;;;;;5.19;78.44;102543.31;5063650;28;20119;-49
2022/12/02 03:58:51;;;;;;;58.22;27.88;;;;;;;5.23;78.71;102544.44;5069521;28;20404;-48
2022/12/02 04:01:18;;;;;;;59.30;27.42;;;;;;;5.13;78.65;102553.03;5063367;28;20489;-51
2022/12/02 04:03:43;;;;;;;59.83;26.83;;;;;;;5.05;78.59;102551.56;5062485;28;20028;-47
2022/12/02 04:06:09;;;;;;;58.53;28.00;;;;;;;5.03;78.91;102546.34;5067487;28;20016;-46
2022/12/02 04:08:35;;;;;;;54.25;26.45;;;;;;;5.13;79.51;102547.06;5064925;28;20359;-49
2022/12/02 04:11:00;;;;;;;56.88;25.35;;;;;;;5.10;78.89;102540.97;5065912;28;20037;-48
2022/12/02 04:13:26;;;;;;;57.58;27.50;;;;;;;5.08;78.84;102539.03;5065209;28;20029;-48
2022/12/02 04:15:51;;;;;;;57.90;26.83;;;;;;;5.15;78.69;102535.31;5061477;28;20033;-49
2022/12/02 04:18:16;;;;;;;53.38;26.42;;;;;;;5.23;79.21;102535.13;5059054;28;20029;-47
2022/12/02 04:20:42;;;;;;;57.47;27.50;;;;;;;5.24;78.88;102528.38;5058969;28;20429;-48
2022/12/02 04:23:07;;;;;;;57.47;26.85;;;;;;;5.26;78.86;102529.38;5058513;28;20025;-45
2022/12/02 04:25:33;;;;;;;59.15;27.67;;;;;;;5.25;78.79;102536.13;5069424;28;20029;-48
2022/12/02 04:27:58;;;;;;;61.03;28.05;;;;;;;5.33;78.79;102537.59;5067229;28;20029;-48
2022/12/02 04:30:24;;;;;;;58.15;27.27;;;;;;;5.29;79.05;102543.25;5065831;28;20082;-46
2022/12/02 04:32:49;;;;;;;60.28;27.40;;;;;;;5.33;78.79;102549.47;5063819;28;20031;-45
2022/12/02 04:35:14;;;;;;;59.72;27.48;;;;;;;5.29;78.69;102539.81;5066000;28;20411;-47
2022/12/02 04:37:40;;;;;;;58.28;26.90;;;;;;;5.30;78.85;102537.38;5069661;28;20059;-46
2022/12/02 04:40:06;;;;;;;60.03;26.80;;;;;;;5.33;78.60;102532.47;5063513;28;20025;-48
2022/12/02 04:42:31;;;;;;;52.55;25.70;;;;;;;5.29;77.89;102532.16;5069442;28;20036;-49
2022/12/02 04:44:57;;;;;;;52.85;24.20;;;;;;;5.25;77.87;102523.38;5062925;28;20029;-48
2022/12/02 04:47:22;;;;;;;45.58;22.55;;;;;;;5.18;77.20;102523.69;5065974;28;20032;-45
2022/12/02 04:49:48;;;;;;;47.47;22.33;;;;;;;5.23;76.91;102513.84;5061958;28;20056;-45
2022/12/02 04:52:14;;;;;;;49.33;23.17;;;;;;;5.12;76.81;102523.22;5068339;28;20132;-48
2022/12/02 04:54:39;;;;;;;44.60;21.95;;;;;;;5.14;76.63;102514.00;5060082;28;20032;-49
2022/12/02 04:57:04;;;;;;;43.65;21.63;;;;;;;5.11;75.93;102508.69;5069008;28;20054;-47
2022/12/02 04:59:30;;;;;;;44.53;21.90;;;;;;;5.09;75.94;102507.66;5068425;28;20055;-47
2022/12/02 05:01:55;;;;;;;43.03;21.20;;;;;;;5.05;75.72;102513.31;5068977;28;20039;-49
2022/12/02 05:04:20;;;;;;;39.83;20.48;;;;;;;5.07;75.66;102506.69;5067413;28;20028;-47
2022/12/02 05:06:46;;;;;;;43.92;21.00;;;;;;;5.08;75.96;102503.34;5068287;28;20028;-46
2022/12/02 05:09:11;;;;;;;42.10;20.30;;;;;;;5.11;76.03;102499.38;5068037;28;20036;-47
2022/12/02 05:11:36;;;;;;;40.75;20.52;;;;;;;5.15;75.95;102485.19;5068697;28;20032;-50
2022/12/02 05:14:02;;;;;;;41.35;21.60;;;;;;;5.17;75.77;102490.44;5067543;28;20470;-47
2022/12/02 05:16:27;;;;;;;42.50;21.27;;;;;;;5.10;75.69;102494.19;5068251;28;20111;-48
2022/12/02 05:18:53;;;;;;;38.03;20.15;;;;;;;5.10;75.24;102500.16;5067075;28;20032;-48
2022/12/02 05:21:18;;;;;;;40.45;20.83;;;;;;;5.04;75.06;102493.72;5068035;28;20404;-48
2022/12/02 05:23:43;;;;;;;35.80;19.30;;;;;;;5.03;75.40;102499.56;5068591;28;20032;-47
2022/12/02 05:26:09;;;;;;;37.70;20.10;;;;;;;4.96;75.75;102500.75;5068024;28;20049;-46
2022/12/02 05:28:34;;;;;;;38.72;19.83;;;;;;;5.05;75.62;102514.22;5067146;28;20021;-48
2022/12/02 05:31:00;;;;;;;40.03;21.05;;;;;;;4.97;74.70;102504.19;5068038;28;20059;-48
2022/12/02 05:33:25;;;;;;;39.72;19.42;;;;;;;4.91;75.31;102498.63;5067542;28;20025;-46
2022/12/02 05:35:50;;;;;;;38.67;19.38;;;;;;;4.87;75.70;102489.88;5069157;28;20107;-47
2022/12/02 05:38:16;;;;;;;38.67;19.80;;;;;;;4.93;76.10;102497.09;5066807;28;20423;-47
2022/12/02 05:40:41;;;;;;;40.85;21.00;;;;;;;4.93;75.87;102497.09;5068005;28;20041;-47
2022/12/02 05:43:19;;;;;;;41.05;20.27;;;;;;;4.91;76.00;102489.31;5066357;28;20376;-46
2022/12/02 05:45:45;;;;;;;41.92;20.55;;;;;;;4.90;76.20;102489.19;5071281;28;20020;-46
2022/12/02 05:48:16;;;;;;;39.97;20.45;;;;;;;4.92;76.19;102497.88;5070345;28;20384;-48
2022/12/02 05:50:42;;;;;;;39.13;18.80;;;;;;;4.91;75.81;102494.41;5069709;28;20028;-47
2022/12/02 05:53:21;;;;;;;42.80;20.05;;;;;;;4.97;76.17;102501.63;5070561;28;20416;-47
2022/12/02 05:55:47;;;;;;;40.88;20.15;;;;;;;4.96;76.16;102492.22;5065968;28;20465;-47
2022/12/02 05:58:12;;;;;;;40.80;19.75;;;;;;;4.96;75.90;102489.66;5071437;28;20039;-48
2022/12/02 06:00:38;;;;;;;39.08;19.60;;;;;;;4.98;76.03;102498.34;5069508;28;20101;-47
2022/12/02 06:03:10;;;;;;;36.78;18.52;;;;;;;4.98;75.97;102490.69;5072398;28;20020;-49
2022/12/02 06:05:40;;;;;;;39.70;19.50;;;;;;;4.88;75.85;102491.63;5069233;28;20078;-48
2022/12/02 06:08:19;;;;;;;37.00;18.98;;;;;;;4.87;76.16;102496.63;5066031;28;20025;-47
2022/12/02 06:11:00;;;;;;;40.45;19.75;;;;;;;4.84;76.63;102487.94;5068898;28;20480;-46
2022/12/02 06:13:27;;;;;;;37.80;17.63;;;;;;;4.80;76.63;102488.50;5072086;28;20066;-48
2022/12/02 06:15:54;;;;;;;39.38;19.05;;;;;;;4.76;76.47;102488.16;5070946;28;20040;-47
2022/12/02 06:18:22;;;;;;;41.72;19.45;;;;;;;4.79;77.15;102493.47;5070292;28;20485;-48
2022/12/02 06:20:54;;;;;;;40.40;18.73;;;;;;;4.78;76.98;102487.47;5071529;28;20485;-49
2022/12/02 06:23:21;;;;;;;41.60;19.80;;;;;;;4.70;76.87;102488.56;5069789;28;20035;-47
2022/12/02 06:25:48;;;;;;;39.72;19.05;;;;;;;4.69;77.18;102499.53;5070920;28;20048;-49
2022/12/02 06:28:45;;;;;;;41.20;19.65;;;;;;;4.71;77.31;102494.53;5069310;28;20029;-49
2022/12/02 06:31:18;;;;;;;44.53;19.38;;;;;;;4.67;77.51;102488.34;5067525;28;20626;-50
2022/12/02 06:33:50;;;;;;;40.65;19.23;;;;;;;4.61;77.05;102489.50;5066952;28;20066;-47
2022/12/02 06:36:24;;;;;;;41.15;19.30;;;;;;;4.65;77.66;102494.94;5070305;28;20469;-49
2022/12/02 06:39:10;;;;;;;41.72;19.15;;;;;;;4.62;77.88;102488.75;5071166;28;20061;-47
2022/12/02 06:41:37;;;;;;;42.20;19.13;;;;;;;4.52;78.02;102490.56;5070729;28;20033;-47
2022/12/02 06:47:34;;;;;;;41.03;18.50;;;;;;;4.65;78.32;102483.88;5069463;28;20273;-48
2022/12/02 06:50:05;;;;;;;41.92;19.33;;;;;;;4.64;78.16;102477.88;5064835;28;20020;-47
2022/12/02 06:52:36;;;;;;;41.45;18.73;;;;;;;4.70;78.22;102490.22;5069994;28;20035;-48
2022/12/02 06:55:06;;;;;;;41.63;19.27;;;;;;;4.63;77.51;102481.22;5069353;28;20099;-48
2022/12/02 06:57:32;;;;;;;40.53;19.85;;;;;;;4.67;77.89;102492.50;5068206;28;20024;-46
2022/12/02 06:59:57;;;;;;;38.90;19.00;;;;;;;4.64;78.07;102495.72;5069577;28;20025;-48
2022/12/02 07:02:29;;;;;;;42.55;20.00;;;;;;;4.62;78.75;102484.53;5069223;28;20126;-48
2022/12/02 07:04:56;;;;;;;42.42;19.65;;;;;;;4.62;78.68;102483.66;5068815;28;20525;-48
2022/12/02 07:07:25;;;;;;;43.25;19.23;;;;;;;4.58;78.83;102491.03;5068663;28;20534;-47
2022/12/02 07:09:56;;;;;;;37.13;19.42;;;;;;;4.62;79.36;102494.72;5070149;28;20024;-45
2022/12/02 07:12:31;;;;;;;37.58;17.52;;;;;;;4.67;78.87;102502.69;5066504;28;20587;-46
2022/12/02 07:15:05;;;;;;;35.55;17.75;;;;;;;4.63;78.84;102499.03;5071203;28;20131;-46
2022/12/02 07:17:34;;;;;;;33.20;16.80;;;;;;;4.57;78.53;102499.47;5069132;28;20024;-46
2022/12/02 07:20:06;;;;;;;35.75;17.38;;;;;;;4.64;78.83;102503.38;5069488;28;20021;-48
2022/12/02 07:22:48;;;;;;;35.47;16.38;;;;;;;4.65;78.71;102499.16;5069305;28;20457;-47
2022/12/02 07:25:16;;;;;;;33.25;15.77;;;;;;;4.63;79.02;102510.91;5069015;28;20031;-47
2022/12/02 07:27:49;;;;;;;34.42;16.85;;;;;;;4.61;79.08;102508.25;5069400;28;20056;-48
2022/12/02 07:30:39;;;;;;;36.55;17.27;;;;;;;4.60;78.86;102492.81;5068254;28;20032;-48
2022/12/02 07:33:04;;;;;;;36.28;17.27;;;;;;;4.65;78.24;102499.16;5065555;28;20664;-46
2022/12/02 07:35:30;;;;;;;35.92;15.82;;;;;;;4.65;78.67;102500.03;5067138;28;20040;-47
2022/12/02 07:37:56;;;;;;;35.10;16.75;;;;;;;4.64;79.09;102494.84;5069657;28;20028;-46
2022/12/02 07:40:22;;;;;;;36.22;17.75;;;;;;;4.59;78.89;102504.66;5068888;28;20043;-48
2022/12/02 07:42:48;;;;;;;37.58;18.10;;;;;;;4.57;79.17;102496.03;5068492;28;20338;-48
2022/12/02 07:45:16;;;;;;;36.10;16.98;;;;;;;4.63;79.67;102499.03;5068827;28;20076;-48
2022/12/02 07:47:42;;;;;;;35.72;17.73;;;;;;;4.68;79.83;102497.75;5065061;28;20025;-46
2022/12/02 07:50:09;;;;;;;38.80;17.25;;;;;;;4.72;79.88;102502.28;5067054;28;20029;-49
2022/12/02 07:52:35;;;;;;;39.88;17.70;;;;;;;4.70;79.90;102505.50;5069721;28;20479;-44
2022/12/02 07:55:00;;;;;;;35.67;17.30;;;;;;;4.69;80.31;102502.06;5070039;28;20029;-46
2022/12/02 07:57:27;;;;;;;38.42;18.63;;;;;;;4.61;80.38;102500.59;5066731;28;20029;-48
2022/12/02 07:59:52;;;;;;;37.05;17.35;;;;;;;4.63;81.00;102505.81;5069271;28;20445;-47
2022/12/02 08:02:17;;;;;;;36.90;17.55;;;;;;;4.57;81.38;102506.22;5067972;28;20027;-48
2022/12/02 08:04:43;;;;;;;32.90;16.98;;;;;;;4.61;81.36;102505.69;5069562;28;20119;-46
2022/12/02 08:07:08;;;;;;;35.40;17.67;;;;;;;4.65;81.56;102507.69;5067483;28;20025;-48
2022/12/02 08:09:33;;;;;;;37.72;18.38;;;;;;;4.70;81.15;102508.94;5067185;28;20033;-47
2022/12/02 08:11:59;;;;;;;40.42;18.90;;;;;;;4.68;81.41;102510.50;5069271;28;20029;-47
2022/12/02 08:14:24;;;;;;;37.75;19.13;;;;;;;4.61;81.05;102522.59;5069240;28;20036;-52
2022/12/02 08:16:50;;;;;;;39.50;18.60;;;;;;;4.60;81.36;102508.09;5068625;28;20035;-46
2022/12/02 08:19:15;;;;;;;39.72;18.92;;;;;;;4.62;81.13;102504.91;5068349;28;20033;-48
2022/12/02 08:21:40;;;;;;;37.97;18.90;;;;;;;4.62;81.32;102502.38;5066357;28;20024;-49
2022/12/02 08:24:07;;;;;;;41.22;20.50;;;;;;;4.61;81.30;102502.22;5068414;28;20504;-48
2022/12/02 08:26:33;;;;;;;38.67;20.15;;;;;;;4.65;81.05;102505.13;5067942;28;20114;-49
2022/12/02 08:28:58;;;;;;;44.63;20.48;;;;;;;4.60;81.30;102498.78;5068693;28;20028;-47
2022/12/02 08:31:24;;;;;;;42.72;20.40;;;;;;;4.56;81.62;102504.44;5067887;28;20361;-49
2022/12/02 08:33:50;;;;;;;43.22;20.40;;;;;;;4.49;81.74;102500.53;5065065;28;20042;-48
2022/12/02 08:36:15;;;;;;;42.28;20.48;;;;;;;4.58;81.55;102496.13;5068909;28;20056;-47
2022/12/02 08:38:42;;;;;;;42.97;21.35;;;;;;;4.56;81.61;102502.78;5069711;28;20534;-48
2022/12/02 08:41:07;;;;;;;43.97;21.50;;;;;;;4.49;81.91;102499.59;5068082;28;20390;-47
2022/12/02 08:43:33;;;;;;;41.20;20.20;;;;;;;4.55;81.46;102503.56;5067431;28;20107;-44
2022/12/02 08:45:58;;;;;;;43.50;19.92;;;;;;;4.57;81.66;102496.91;5068259;28;20415;-47
2022/12/02 08:48:23;;;;;;;42.65;19.63;;;;;;;4.64;81.96;102499.94;5068076;28;20943;-46
2022/12/02 08:50:49;;;;;;;41.75;19.92;;;;;;;4.65;81.05;102505.13;5059799;28;20025;-49
2022/12/02 08:53:14;;;;;;;40.67;19.63;;;;;;;4.60;81.54;102511.53;5057074;28;20036;-46
2022/12/02 08:55:39;;;;;;;38.30;18.40;;;;;;;4.51;81.63;102496.44;5060231;28;20466;-49
2022/12/02 08:58:05;;;;;;;38.17;17.55;;;;;;;4.47;82.51;102490.97;5068925;28;20037;-49
2022/12/02 09:00:30;;;;;;;36.22;17.30;;;;;;;4.44;82.76;102503.47;5068681;28;20021;-47
2022/12/02 09:02:56;;;;;;;36.70;16.63;;;;;;;4.39;83.37;102495.47;5067312;28;20477;-46
2022/12/02 09:05:21;;;;;;;37.35;17.83;;;;;;;4.30;84.10;102497.28;5067212;28;20029;-46
2022/12/02 09:07:47;;;;;;;36.35;17.80;;;;;;;4.29;84.68;102504.03;5067701;28;20020;-48
2022/12/02 09:10:13;;;;;;;33.90;17.48;;;;;;;4.35;85.44;102497.63;5064697;28;20032;-46
2022/12/02 09:12:38;;;;;;;40.58;18.27;;;;;;;4.38;85.46;102503.00;5065231;28;20029;-48
2022/12/02 09:15:06;;;;;;;35.08;17.27;;;;;;;4.49;85.40;102502.16;5067144;28;20020;-49
2022/12/02 09:17:31;;;;;;;37.53;17.83;;;;;;;4.52;85.15;102502.41;5066820;28;20039;-45
2022/12/02 09:19:57;;;;;;;36.00;17.02;;;;;;;4.49;84.77;102507.25;5069982;28;20052;-47
2022/12/02 09:22:22;;;;;;;34.50;16.92;;;;;;;4.44;85.28;102503.47;5067790;28;20531;-47
2022/12/02 09:24:47;;;;;;;31.63;15.68;;;;;;;4.48;85.15;102502.94;5072625;28;20489;-48
2022/12/02 09:27:14;;;;;;;29.70;14.77;;;;;;;4.52;85.09;102498.19;5068371;28;20049;-45
2022/12/02 09:29:39;;;;;;;33.92;15.35;;;;;;;4.48;85.47;102496.16;5070868;28;20025;-47
2022/12/02 09:32:04;;;;;;;31.63;15.98;;;;;;;4.54;84.93;102495.75;5067290;28;20025;-48
2022/12/02 09:34:30;;;;;;;28.77;14.75;;;;;;;4.57;85.08;102493.47;5067958;28;20089;-49
2022/12/02 09:36:55;;;;;;;30.80;15.18;;;;;;;4.52;85.48;102484.56;5067260;28;20049;-44
2022/12/02 09:39:20;;;;;;;30.67;15.77;;;;;;;4.56;86.09;102490.03;5067597;28;20043;-45
2022/12/02 09:41:46;;;;;;;32.53;15.50;;;;;;;4.48;86.05;102482.56;5064623;28;20530;-47
2022/12/02 09:44:12;;;;;;;34.33;16.10;;;;;;;4.52;86.07;102484.56;5069659;28;20033;-49
2022/12/02 09:46:38;;;;;;;34.13;15.90;;;;;;;4.50;86.18;102479.38;5069336;28;20520;-48
2022/12/02 09:49:03;;;;;;;33.60;15.70;;;;;;;4.52;86.09;102479.47;5071096;28;20450;-48
2022/12/02 09:51:29;;;;;;;33.97;15.63;;;;;;;4.42;86.46;102482.97;5063451;28;20037;-45
2022/12/02 09:53:56;;;;;;;35.30;16.75;;;;;;;4.36;86.70;102487.56;5066406;28;20037;-47
2022/12/02 09:56:22;;;;;;;34.95;15.88;;;;;;;4.36;86.80;102489.22;5063920;28;20426;-48
2022/12/02 09:58:50;;;;;;;30.73;15.10;;;;;;;4.27;87.16;102485.19;5072090;28;20028;-47
2022/12/02 10:01:16;;;;;;;39.33;16.23;;;;;;;4.32;87.30;102483.03;5070298;28;20481;-47
2022/12/02 10:03:44;;;;;;;36.28;17.42;;;;;;;4.28;87.34;102488.63;5071662;28;20094;-48
2022/12/02 10:06:18;;;;;;;39.00;17.85;;;;;;;4.30;88.03;102482.00;5071375;28;20481;-46
2022/12/02 10:08:44;;;;;;;41.65;17.95;;;;;;;4.18;87.37;102481.91;5069412;28;20074;-47
2022/12/02 10:11:19;;;;;;;46.78;18.70;;;;;;;4.22;87.65;102478.84;5068698;28;20052;-47
2022/12/02 10:13:45;;;;;;;42.78;18.60;;;;;;;4.18;87.55;102481.91;5068861;28;20020;-48
2022/12/02 10:16:14;;;;;;;44.80;18.65;;;;;;;4.22;87.66;102481.38;5068836;28;20032;-44
2022/12/02 10:18:41;;;;;;;49.42;20.75;;;;;;;4.25;87.58;102475.66;5066239;28;20423;-46
2022/12/02 10:21:06;;;;;;;43.80;19.83;;;;;;;4.33;88.06;102473.72;5067673;28;20040;-47
2022/12/02 10:23:31;;;;;;;51.03;21.58;;;;;;;4.29;87.79;102476.00;5067060;28;20032;-49
2022/12/02 10:26:11;;;;;;;46.35;20.63;;;;;;;4.34;87.08;102470.41;5068063;28;20058;-49
2022/12/02 10:28:38;;;;;;;47.90;19.90;;;;;;;4.32;87.09;102470.28;5067881;28;20102;-46
2022/12/02 10:31:12;;;;;;;52.60;21.77;;;;;;;4.30;86.71;102466.72;5068589;28;20489;-48
2022/12/02 10:33:59;;;;;;;46.03;19.60;;;;;;;4.29;87.29;102463.28;5065365;28;20477;-50
2022/12/02 10:36:35;;;;;;;55.85;21.58;;;;;;;4.36;86.99;102464.66;5060720;28;20075;-49
2022/12/02 10:39:20;;;;;;;48.85;20.15;;;;;;;4.41;87.08;102452.28;5069274;28;20037;-49
2022/12/02 10:41:46;;;;;;;54.90;21.80;;;;;;;4.42;86.29;102459.16;5069887;28;20032;-46
2022/12/02 10:44:15;;;;;;;50.33;20.67;;;;;;;4.47;86.55;102447.66;5069053;28;20044;-46
2022/12/02 10:46:41;;;;;;;50.00;20.33;;;;;;;4.51;86.25;102452.25;5066438;28;20472;-47
2022/12/02 10:49:28;;;;;;;50.47;21.45;;;;;;;4.58;86.29;102451.94;5062776;28;20017;-51
2022/12/02 10:51:59;;;;;;;51.20;21.38;;;;;;;4.50;85.98;102453.00;5058900;28;20032;-46
2022/12/02 10:54:28;;;;;;;48.80;21.08;;;;;;;4.55;85.44;102441.50;5064200;28;20027;-48
2022/12/02 10:56:55;;;;;;;50.90;20.92;;;;;;;4.53;85.35;102443.03;5068121;28;20025;-48
2022/12/02 10:59:21;;;;;;;52.08;21.42;;;;;;;4.49;85.09;102441.94;5066249;28;20106;-48
2022/12/02 11:01:47;;;;;;;48.83;20.63;;;;;;;4.45;85.38;102439.03;5068997;28;20504;-45
2022/12/02 11:04:14;;;;;;;48.47;20.67;;;;;;;4.53;85.96;102440.50;5070016;28;20060;-47
2022/12/02 11:06:39;;;;;;;50.20;20.90;;;;;;;4.56;85.57;102433.09;5070649;28;20468;-46
2022/12/02 11:09:05;;;;;;;47.72;20.00;;;;;;;4.50;84.45;102437.72;5069863;28;20033;-46
2022/12/02 11:11:30;;;;;;;52.45;21.63;;;;;;;4.50;85.06;102441.16;5070726;28;20424;-45
2022/12/02 11:13:58;;;;;;;54.03;21.65;;;;;;;4.43;84.57;102440.53;5070078;28;20115;-47
2022/12/02 11:16:27;;;;;;;51.28;20.80;;;;;;;4.41;85.30;102432.78;5069614;28;20031;-47
2022/12/02 11:19:07;;;;;;;50.03;21.13;;;;;;;4.48;86.08;102432.50;5069825;28;20037;-48
2022/12/02 11:21:41;;;;;;;52.28;21.88;;;;;;;4.49;84.54;102429.19;5069719;28;20028;-47
2022/12/02 11:24:27;;;;;;;48.17;21.17;;;;;;;4.48;84.55;102426.50;5065847;28;20044;-48
2022/12/02 11:26:58;;;;;;;52.05;21.52;;;;;;;4.41;84.30;102434.44;5067724;28;20040;-47